Time;durP1;ratioP1;P1;durP2;ratioP2;P2;SDS_P1;SDS_P2;PMS_P1;PMS_P2;Temp;Humidity;BMP_temperature;BMP_pressure;BME280_temperature;BME280_humidity;BME280_pressure;Samples;Min_cycle;Max_cycle;Signal;HPM_P1;HPM_P2
2022/01/26 00:06:32;;;;;;;159.35;47.22;;;;;;;;;;5046216;28;20048;-61
2022/01/26 00:08:59;;;;;;;167.93;50.80;;;;;;;;;;5045409;28;20431;-61
2022/01/26 00:11:27;;;;;;;159.07;47.85;;;;;;;;;;5038116;28;20044;-60
2022/01/26 00:13:54;;;;;;;154.13;47.72;;;;;;;;;;5045151;28;20055;-61
2022/01/26 00:16:26;;;;;;;160.27;48.10;;;;;;;;;;5036823;28;20088;-61
2022/01/26 00:18:56;;;;;;;152.73;44.88;;;;;;;;;;5045315;28;20048;-61
2022/01/26 00:21:34;;;;;;;154.07;46.10;;;;;;;;;;5049226;28;20505;-61
2022/01/26 00:29:13;;;;;;;148.27;45.65;;;;;;;;;;5048427;28;20139;-61
2022/01/26 00:40:10;;;;;;;149.27;44.53;;;;;;;;;;5043381;28;20049;-61
2022/01/26 00:42:39;;;;;;;150.95;46.13;;;;;;;;;;5045801;28;20057;-61
2022/01/26 00:45:06;;;;;;;161.57;47.55;;;;;;;;;;5040580;28;20488;-61
2022/01/26 00:47:33;;;;;;;162.13;49.38;;;;;;;;;;5044010;28;20033;-61
2022/01/26 00:50:03;;;;;;;156.30;50.42;;;;;;;;;;5043306;28;20382;-61
2022/01/26 00:52:41;;;;;;;152.68;47.83;;;;;;;;;;5041693;28;20052;-60
2022/01/26 00:55:09;;;;;;;141.48;45.78;;;;;;;;;;5046494;28;20056;-61
2022/01/26 00:57:36;;;;;;;146.05;46.78;;;;;;;;;;5041089;28;20072;-61
2022/01/26 01:00:03;;;;;;;164.40;47.03;;;;;;;;;;5041337;28;20143;-60
2022/01/26 01:02:31;;;;;;;160.75;47.10;;;;;;;;;;5039911;28;20045;-61
2022/01/26 01:05:01;;;;;;;146.38;47.25;;;;;;;;;;5041597;28;20079;-61
2022/01/26 01:07:31;;;;;;;163.63;48.13;;;;;;;;;;5044076;28;20544;-61
2022/01/26 01:09:59;;;;;;;148.63;48.22;;;;;;;;;;5047216;28;20415;-61
2022/01/26 01:12:25;;;;;;;147.30;48.40;;;;;;;;;;5048033;28;20999;-61
2022/01/26 01:14:51;;;;;;;150.68;49.15;;;;;;;;;;5044580;28;20047;-61
2022/01/26 01:17:24;;;;;;;156.88;49.45;;;;;;;;;;5045888;28;20045;-61
2022/01/26 01:20:15;;;;;;;159.63;49.80;;;;;;;;;;5035979;28;20041;-61
2022/01/26 01:27:52;;;;;;;150.45;49.85;;;;;;;;;;5043297;28;20045;-61
2022/01/26 01:32:54;;;;;;;135.95;50.65;;;;;;;;;;5043418;28;20398;-61
2022/01/26 01:35:20;;;;;;;128.52;50.50;;;;;;;;;;5042989;28;20099;-61
2022/01/26 01:37:46;;;;;;;132.93;52.40;;;;;;;;;;5039597;28;20041;-61
2022/01/26 01:40:12;;;;;;;134.85;53.88;;;;;;;;;;5045081;28;20435;-61
2022/01/26 01:42:39;;;;;;;121.72;51.03;;;;;;;;;;5043741;28;20505;-61
2022/01/26 01:45:06;;;;;;;128.63;50.83;;;;;;;;;;5059315;28;20052;-61
2022/01/26 01:47:32;;;;;;;133.55;52.95;;;;;;;;;;5045038;28;20045;-61
2022/01/26 01:49:58;;;;;;;116.75;48.47;;;;;;;;;;5046417;28;20419;-61
2022/01/26 01:52:26;;;;;;;112.45;50.22;;;;;;;;;;5051242;28;20044;-61
2022/01/26 01:54:54;;;;;;;117.93;51.88;;;;;;;;;;5052383;28;20124;-61
2022/01/26 01:57:23;;;;;;;118.43;47.67;;;;;;;;;;5049692;28;20090;-61
2022/01/26 01:59:50;;;;;;;111.13;49.78;;;;;;;;;;5045497;28;20514;-61
2022/01/26 02:02:16;;;;;;;121.03;50.90;;;;;;;;;;5042568;28;20048;-61
2022/01/26 02:04:42;;;;;;;116.00;48.83;;;;;;;;;;5046411;28;20457;-61
2022/01/26 02:07:10;;;;;;;108.70;48.75;;;;;;;;;;5043202;28;20397;-61
2022/01/26 02:09:36;;;;;;;111.90;48.88;;;;;;;;;;5039542;28;20060;-61
2022/01/26 02:12:11;;;;;;;104.60;45.80;;;;;;;;;;5039856;28;20128;-61
2022/01/26 02:14:43;;;;;;;98.60;45.83;;;;;;;;;;5048965;28;20060;-61
2022/01/26 02:20:33;;;;;;;101.50;48.08;;;;;;;;;;5050178;28;20051;-61
2022/01/26 02:50:38;;;;;;;96.57;42.42;;;;;;;;;;5046172;28;20053;-61
2022/01/26 02:53:22;;;;;;;87.35;39.85;;;;;;;;;;5036719;28;20448;-61
2022/01/26 02:55:52;;;;;;;89.47;41.03;;;;;;;;;;5040079;28;20041;-61
2022/01/26 03:01:20;;;;;;;92.65;42.55;;;;;;;;;;5039276;28;20091;-61
2022/01/26 03:04:01;;;;;;;92.70;44.85;;;;;;;;;;5044104;28;20050;-60
2022/01/26 03:06:36;;;;;;;90.75;44.63;;;;;;;;;;5048941;28;20052;-61
2022/01/26 03:09:09;;;;;;;90.10;42.40;;;;;;;;;;5049584;28;20462;-61
2022/01/26 03:11:38;;;;;;;100.15;44.67;;;;;;;;;;5047052;28;20057;-62
2022/01/26 03:14:15;;;;;;;97.63;43.55;;;;;;;;;;5039629;28;20528;-61
2022/01/26 03:16:47;;;;;;;100.63;44.40;;;;;;;;;;5038422;28;20052;-61
2022/01/26 03:19:20;;;;;;;89.25;42.35;;;;;;;;;;5039692;28;20041;-61
2022/01/26 03:22:03;;;;;;;97.10;45.20;;;;;;;;;;5040998;28;20409;-60
2022/01/26 03:30:03;;;;;;;;;;;;;;;;;;5048912;28;20086;-61
2022/01/26 03:34:58;;;;;;;94.93;41.92;;;;;;;;;;5041590;28;20041;-60
2022/01/26 03:37:31;;;;;;;91.90;42.63;;;;;;;;;;5041721;28;20046;-61
2022/01/26 03:39:57;;;;;;;94.90;43.33;;;;;;;;;;5037070;28;20093;-61
2022/01/26 03:42:23;;;;;;;101.18;41.95;;;;;;;;;;5043286;28;20730;-61
2022/01/26 03:44:50;;;;;;;98.18;41.15;;;;;;;;;;5048354;28;20431;-61
2022/01/26 03:47:16;;;;;;;95.38;43.22;;;;;;;;;;5048272;28;20102;-61
2022/01/26 03:49:42;;;;;;;100.47;43.75;;;;;;;;;;5048039;28;20131;-61
2022/01/26 03:52:09;;;;;;;96.68;42.92;;;;;;;;;;5045540;28;20112;-61
2022/01/26 03:54:35;;;;;;;92.25;41.90;;;;;;;;;;5060869;28;20072;-61
2022/01/26 03:57:01;;;;;;;100.78;44.47;;;;;;;;;;5044119;28;20561;-61
2022/01/26 03:59:27;;;;;;;100.43;43.70;;;;;;;;;;5058692;28;20037;-61
2022/01/26 04:01:54;;;;;;;97.97;41.55;;;;;;;;;;5044477;28;20098;-60
2022/01/26 04:04:20;;;;;;;95.15;41.20;;;;;;;;;;5047613;28;20495;-61
2022/01/26 04:06:46;;;;;;;100.70;42.92;;;;;;;;;;5040389;28;20424;-61
2022/01/26 04:09:15;;;;;;;102.55;40.72;;;;;;;;;;5052666;28;20045;-61
2022/01/26 04:11:44;;;;;;;99.20;40.78;;;;;;;;;;5040108;28;20472;-61
2022/01/26 04:14:14;;;;;;;103.18;42.95;;;;;;;;;;5049273;28;20044;-61
2022/01/26 04:16:41;;;;;;;102.90;40.13;;;;;;;;;;5047202;28;20501;-61
2022/01/26 04:19:07;;;;;;;97.07;41.42;;;;;;;;;;5046593;28;20052;-61
2022/01/26 04:21:51;;;;;;;98.70;40.13;;;;;;;;;;5046045;28;20120;-61
2022/01/26 04:24:23;;;;;;;96.28;39.55;;;;;;;;;;5058652;28;20067;-61
2022/01/26 04:26:56;;;;;;;104.72;39.65;;;;;;;;;;5040452;28;20056;-61
2022/01/26 04:29:27;;;;;;;101.78;40.05;;;;;;;;;;5038740;28;20420;-61
2022/01/26 04:31:53;;;;;;;106.57;38.58;;;;;;;;;;5039041;28;20530;-61
2022/01/26 04:34:20;;;;;;;100.80;38.72;;;;;;;;;;5043237;28;20053;-61
2022/01/26 04:36:59;;;;;;;104.70;39.78;;;;;;;;;;5045734;28;20038;-61
2022/01/26 04:39:31;;;;;;;95.68;36.15;;;;;;;;;;5046791;28;20053;-61
2022/01/26 04:42:04;;;;;;;101.13;37.42;;;;;;;;;;5047460;28;20397;-61
2022/01/26 04:44:37;;;;;;;97.65;38.42;;;;;;;;;;5040987;28;20072;-62
2022/01/26 04:47:03;;;;;;;100.22;35.78;;;;;;;;;;5043745;28;20047;-61
2022/01/26 04:49:29;;;;;;;98.82;35.15;;;;;;;;;;5040401;28;20059;-62
2022/01/26 04:51:55;;;;;;;110.25;37.72;;;;;;;;;;5039631;28;20041;-61
2022/01/26 04:54:21;;;;;;;96.43;35.30;;;;;;;;;;5045711;28;20396;-61
2022/01/26 04:56:48;;;;;;;94.75;35.10;;;;;;;;;;5046889;28;20047;-61
2022/01/26 04:59:14;;;;;;;101.72;35.72;;;;;;;;;;5039657;28;20033;-61
2022/01/26 05:01:40;;;;;;;100.45;35.92;;;;;;;;;;5042838;28;20045;-61
2022/01/26 05:04:07;;;;;;;101.60;36.38;;;;;;;;;;5041980;28;20065;-61
2022/01/26 05:06:33;;;;;;;108.25;38.40;;;;;;;;;;5037506;28;20053;-61
2022/01/26 05:08:59;;;;;;;103.38;37.03;;;;;;;;;;5037685;28;20045;-61
2022/01/26 05:11:33;;;;;;;104.00;35.70;;;;;;;;;;5036345;28;20095;-61
2022/01/26 05:13:59;;;;;;;101.10;34.83;;;;;;;;;;5036223;28;20102;-61
2022/01/26 05:16:26;;;;;;;98.82;36.22;;;;;;;;;;5039951;28;20052;-61
2022/01/26 05:18:53;;;;;;;93.00;33.72;;;;;;;;;;5034725;28;20041;-61
2022/01/26 05:21:19;;;;;;;99.35;36.00;;;;;;;;;;5033489;28;20049;-61
2022/01/26 05:23:46;;;;;;;102.13;35.38;;;;;;;;;;5037200;28;20044;-61
2022/01/26 05:26:12;;;;;;;99.18;35.67;;;;;;;;;;5043622;28;20110;-61
2022/01/26 05:28:39;;;;;;;100.88;36.53;;;;;;;;;;5048608;28;20397;-61
2022/01/26 05:31:05;;;;;;;109.20;36.50;;;;;;;;;;5049565;28;20076;-61
2022/01/26 05:33:31;;;;;;;111.82;37.85;;;;;;;;;;5046534;28;20477;-61
2022/01/26 05:35:57;;;;;;;110.65;39.60;;;;;;;;;;5060706;28;20097;-61
2022/01/26 05:38:23;;;;;;;108.65;36.72;;;;;;;;;;5045862;28;20466;-61
2022/01/26 05:40:50;;;;;;;107.80;38.13;;;;;;;;;;5042851;28;20049;-61
2022/01/26 05:43:17;;;;;;;110.88;39.42;;;;;;;;;;5043450;28;20461;-61
2022/01/26 05:45:48;;;;;;;113.90;40.13;;;;;;;;;;5050894;28;20057;-62
2022/01/26 05:48:15;;;;;;;109.15;37.40;;;;;;;;;;5051158;28;20037;-61
2022/01/26 05:50:53;;;;;;;103.30;37.67;;;;;;;;;;5051261;28;20439;-61
2022/01/26 05:53:21;;;;;;;111.75;40.95;;;;;;;;;;5052529;28;20041;-61
2022/01/26 05:55:49;;;;;;;100.93;37.53;;;;;;;;;;5049836;28;20120;-61
2022/01/26 05:58:15;;;;;;;109.35;40.25;;;;;;;;;;5049670;28;20506;-61
2022/01/26 06:00:41;;;;;;;100.88;37.90;;;;;;;;;;5051101;28;20037;-61
2022/01/26 06:03:07;;;;;;;98.25;39.85;;;;;;;;;;5050549;28;20053;-61
2022/01/26 06:05:33;;;;;;;109.45;39.75;;;;;;;;;;5048354;28;20063;-61
2022/01/26 06:07:59;;;;;;;103.18;40.20;;;;;;;;;;5061948;28;20073;-61
2022/01/26 06:10:26;;;;;;;109.75;39.55;;;;;;;;;;5043954;28;20132;-61
2022/01/26 06:12:52;;;;;;;111.35;38.65;;;;;;;;;;5047278;28;20393;-61
2022/01/26 06:15:20;;;;;;;106.43;40.15;;;;;;;;;;5048198;28;20048;-61
2022/01/26 06:17:46;;;;;;;101.53;40.30;;;;;;;;;;5037192;28;20481;-61
2022/01/26 06:20:12;;;;;;;115.40;41.70;;;;;;;;;;5038549;28;20079;-61
2022/01/26 06:22:38;;;;;;;106.28;43.03;;;;;;;;;;5046015;28;20037;-61
2022/01/26 06:25:06;;;;;;;110.53;42.63;;;;;;;;;;5044108;28;20044;-61
2022/01/26 06:27:33;;;;;;;102.53;40.70;;;;;;;;;;5047384;28;20108;-61
2022/01/26 06:29:59;;;;;;;113.15;41.15;;;;;;;;;;5043795;28;20131;-61
2022/01/26 06:32:25;;;;;;;108.50;43.70;;;;;;;;;;5045768;28;20079;-61
2022/01/26 06:34:51;;;;;;;105.50;43.70;;;;;;;;;;5060000;28;20125;-61
2022/01/26 06:37:18;;;;;;;117.82;43.50;;;;;;;;;;5048938;28;20033;-61
2022/01/26 06:39:44;;;;;;;109.65;44.10;;;;;;;;;;5046604;28;20095;-61
2022/01/26 06:42:17;;;;;;;112.80;46.63;;;;;;;;;;5042653;28;20156;-61
2022/01/26 06:49:54;;;;;;;112.03;46.42;;;;;;;;;;5047467;28;20033;-61
2022/01/26 06:52:20;;;;;;;111.80;47.45;;;;;;;;;;5049847;28;20424;-61
2022/01/26 06:54:46;;;;;;;116.50;47.47;;;;;;;;;;5051491;28;20037;-61
2022/01/26 06:57:12;;;;;;;110.55;44.47;;;;;;;;;;5051601;28;20061;-61
2022/01/26 06:59:38;;;;;;;117.55;45.78;;;;;;;;;;5045599;28;20500;-60
2022/01/26 07:02:04;;;;;;;112.53;45.72;;;;;;;;;;5042562;28;20045;-61
2022/01/26 07:04:31;;;;;;;112.93;46.45;;;;;;;;;;5048553;28;20102;-61
2022/01/26 07:06:57;;;;;;;119.00;48.03;;;;;;;;;;5048298;28;20080;-61
2022/01/26 07:09:23;;;;;;;109.82;43.25;;;;;;;;;;5049618;28;20037;-61
2022/01/26 07:11:49;;;;;;;115.40;46.50;;;;;;;;;;5047265;28;20040;-61
2022/01/26 07:14:26;;;;;;;107.53;45.30;;;;;;;;;;5050395;28;20397;-61
2022/01/26 07:19:53;;;;;;;103.25;42.67;;;;;;;;;;5047432;28;20053;-61
2022/01/26 07:22:19;;;;;;;95.07;40.33;;;;;;;;;;5043990;28;20163;-61
2022/01/26 07:24:46;;;;;;;99.75;43.65;;;;;;;;;;5044107;28;20888;-61
2022/01/26 07:27:12;;;;;;;75.30;34.15;;;;;;;;;;5043352;28;20100;-61
2022/01/26 07:29:38;;;;;;;84.93;38.22;;;;;;;;;;5043115;28;20045;-61
2022/01/26 07:32:06;;;;;;;74.22;36.58;;;;;;;;;;5036938;28;20064;-61
2022/01/26 07:34:32;;;;;;;77.72;36.50;;;;;;;;;;5034822;28;20446;-61
2022/01/26 07:37:03;;;;;;;77.97;35.22;;;;;;;;;;5038339;28;20041;-61
2022/01/26 07:39:41;;;;;;;77.60;34.90;;;;;;;;;;5042847;28;20058;-61
2022/01/26 07:42:08;;;;;;;70.85;32.45;;;;;;;;;;5047217;28;20099;-61
2022/01/26 07:44:34;;;;;;;70.03;32.60;;;;;;;;;;5047129;28;20157;-61
2022/01/26 07:47:00;;;;;;;65.35;31.20;;;;;;;;;;5046260;28;20441;-61
2022/01/26 07:49:26;;;;;;;71.15;33.50;;;;;;;;;;5048822;28;20296;-61
2022/01/26 07:51:52;;;;;;;67.78;32.55;;;;;;;;;;5037133;28;20041;-60
2022/01/26 07:54:21;;;;;;;72.18;34.42;;;;;;;;;;5035295;28;20473;-60
2022/01/26 07:56:47;;;;;;;70.50;33.67;;;;;;;;;;5036650;28;20045;-61
2022/01/26 07:59:13;;;;;;;84.25;38.03;;;;;;;;;;5042814;28;20075;-61
2022/01/26 08:01:40;;;;;;;86.50;37.97;;;;;;;;;;5046595;28;20140;-61
2022/01/26 08:04:06;;;;;;;84.05;38.65;;;;;;;;;;5049339;28;20514;-61
2022/01/26 08:06:32;;;;;;;89.85;39.85;;;;;;;;;;5048749;28;20084;-62
2022/01/26 08:08:59;;;;;;;86.85;39.40;;;;;;;;;;5047874;28;20036;-61
2022/01/26 08:11:25;;;;;;;85.57;37.88;;;;;;;;;;5044917;28;20037;-61
2022/01/26 08:13:52;;;;;;;82.65;38.65;;;;;;;;;;5047206;28;20047;-62
2022/01/26 08:16:18;;;;;;;81.25;37.28;;;;;;;;;;5045803;28;20380;-61
2022/01/26 08:18:44;;;;;;;84.82;40.40;;;;;;;;;;5041676;28;21971;-62
2022/01/26 08:21:11;;;;;;;90.05;41.30;;;;;;;;;;5040711;28;20124;-61
2022/01/26 08:23:42;;;;;;;88.78;40.17;;;;;;;;;;5042834;28;20051;-61
2022/01/26 08:26:08;;;;;;;83.60;40.17;;;;;;;;;;5046497;28;20091;-61
2022/01/26 08:28:39;;;;;;;89.18;39.65;;;;;;;;;;5044163;28;20038;-62
2022/01/26 08:31:05;;;;;;;83.82;38.88;;;;;;;;;;5043621;28;20114;-61
2022/01/26 08:33:31;;;;;;;95.35;43.92;;;;;;;;;;5055137;28;20048;-61
2022/01/26 08:35:58;;;;;;;97.45;41.42;;;;;;;;;;5043504;28;20044;-61
2022/01/26 08:38:26;;;;;;;89.18;40.50;;;;;;;;;;5039764;28;20072;-61
2022/01/26 08:40:52;;;;;;;91.80;39.63;;;;;;;;;;5034026;28;20416;-62
2022/01/26 08:43:19;;;;;;;93.32;41.00;;;;;;;;;;5039886;28;20045;-62
2022/01/26 08:45:45;;;;;;;93.78;40.15;;;;;;;;;;5058561;28;20045;-62
2022/01/26 08:48:12;;;;;;;96.63;40.53;;;;;;;;;;5043265;28;20041;-62
2022/01/26 08:50:38;;;;;;;91.70;39.55;;;;;;;;;;5042465;28;20609;-62
2022/01/26 08:53:04;;;;;;;92.00;39.90;;;;;;;;;;5039424;28;20033;-62
2022/01/26 08:55:31;;;;;;;92.50;37.88;;;;;;;;;;5045558;28;20538;-63
2022/01/26 08:57:57;;;;;;;90.47;39.72;;;;;;;;;;5040762;28;20040;-62
2022/01/26 09:00:24;;;;;;;94.15;38.08;;;;;;;;;;5040734;28;20060;-62
2022/01/26 09:02:51;;;;;;;81.07;35.63;;;;;;;;;;5038745;28;20033;-62
2022/01/26 09:05:17;;;;;;;87.78;35.80;;;;;;;;;;5035849;28;20049;-62
2022/01/26 09:07:45;;;;;;;91.60;37.83;;;;;;;;;;5038974;28;20041;-63
2022/01/26 09:10:11;;;;;;;79.65;34.65;;;;;;;;;;5043785;28;20045;-69
2022/01/26 09:12:41;;;;;;;93.65;38.50;;;;;;;;;;5034249;28;20041;-62
2022/01/26 09:15:08;;;;;;;83.70;36.95;;;;;;;;;;5039966;28;20083;-62
2022/01/26 09:17:35;;;;;;;79.40;34.97;;;;;;;;;;5038880;28;20112;-62
2022/01/26 09:20:03;;;;;;;81.80;35.55;;;;;;;;;;5034346;28;20041;-64
2022/01/26 09:22:29;;;;;;;76.95;33.35;;;;;;;;;;5036389;28;20044;-62
2022/01/26 09:24:55;;;;;;;70.53;31.98;;;;;;;;;;5036142;28;20549;-62
2022/01/26 09:27:21;;;;;;;72.20;31.98;;;;;;;;;;5035319;28;20496;-62
2022/01/26 09:29:47;;;;;;;61.75;31.33;;;;;;;;;;5038528;28;20050;-62
2022/01/26 09:32:14;;;;;;;67.75;30.98;;;;;;;;;;5039839;28;20049;-62
2022/01/26 09:34:41;;;;;;;67.25;29.58;;;;;;;;;;5042263;28;20414;-62
2022/01/26 09:37:09;;;;;;;68.80;29.33;;;;;;;;;;5031442;28;20053;-62
2022/01/26 09:39:35;;;;;;;63.20;29.50;;;;;;;;;;5032951;28;20073;-61
2022/01/26 09:42:01;;;;;;;66.80;29.20;;;;;;;;;;5035585;28;20049;-61
2022/01/26 09:44:29;;;;;;;68.45;30.85;;;;;;;;;;5036099;28;20064;-62
2022/01/26 09:46:56;;;;;;;71.35;31.55;;;;;;;;;;5036784;28;20045;-62
2022/01/26 09:49:28;;;;;;;71.25;30.90;;;;;;;;;;5038651;28;20131;-62
2022/01/26 09:51:55;;;;;;;74.15;31.48;;;;;;;;;;5039359;28;20507;-62
2022/01/26 09:54:21;;;;;;;70.43;30.63;;;;;;;;;;5034850;28;20038;-62
2022/01/26 09:56:48;;;;;;;67.65;29.45;;;;;;;;;;5040070;28;20046;-62
2022/01/26 09:59:15;;;;;;;67.32;29.77;;;;;;;;;;5039700;28;20040;-62
2022/01/26 10:01:43;;;;;;;76.75;34.25;;;;;;;;;;5043854;28;20029;-62
2022/01/26 10:04:26;;;;;;;72.57;29.83;;;;;;;;;;5045569;28;20103;-62
2022/01/26 10:07:00;;;;;;;72.75;33.33;;;;;;;;;;5038984;28;20057;-62
2022/01/26 10:09:45;;;;;;;68.90;31.80;;;;;;;;;;5038549;28;20049;-62
2022/01/26 10:17:44;;;;;;;77.28;33.60;;;;;;;;;;5039505;28;20045;-69
2022/01/26 10:20:15;;;;;;;73.53;32.90;;;;;;;;;;5035458;28;20057;-62
2022/01/26 10:22:41;;;;;;;70.00;31.05;;;;;;;;;;5037192;28;20501;-62
2022/01/26 10:25:09;;;;;;;75.07;32.35;;;;;;;;;;5045180;28;20047;-62
2022/01/26 10:27:36;;;;;;;73.10;31.13;;;;;;;;;;5040401;28;20428;-62
2022/01/26 10:30:05;;;;;;;85.15;34.33;;;;;;;;;;5044712;28;20409;-62
2022/01/26 10:32:35;;;;;;;80.47;34.33;;;;;;;;;;5043235;28;20120;-62
2022/01/26 10:35:01;;;;;;;70.10;31.05;;;;;;;;;;5026455;28;20756;-62
2022/01/26 10:37:28;;;;;;;74.70;34.35;;;;;;;;;;5047835;28;20415;-62
2022/01/26 10:39:58;;;;;;;73.32;31.23;;;;;;;;;;5044329;28;20076;-62
2022/01/26 10:42:26;;;;;;;72.70;35.00;;;;;;;;;;5049382;28;20057;-62
2022/01/26 10:45:12;;;;;;;83.50;33.10;;;;;;;;;;5049225;28;20504;-62
2022/01/26 10:47:43;;;;;;;76.70;33.22;;;;;;;;;;5045468;28;20453;-62
2022/01/26 10:50:32;;;;;;;73.82;31.35;;;;;;;;;;5041195;28;20079;-62
2022/01/26 10:53:05;;;;;;;78.32;32.47;;;;;;;;;;5041598;28;20544;-62
2022/01/26 10:55:33;;;;;;;71.40;31.63;;;;;;;;;;5035352;28;20480;-63
2022/01/26 10:57:59;;;;;;;76.60;32.55;;;;;;;;;;5037939;28;20048;-62
2022/01/26 11:00:25;;;;;;;77.35;32.63;;;;;;;;;;5037182;28;20098;-62
2022/01/26 11:02:57;;;;;;;81.60;32.38;;;;;;;;;;5045572;28;20044;-62
2022/01/26 11:05:23;;;;;;;73.97;32.33;;;;;;;;;;5042479;28;20455;-76
2022/01/26 11:07:50;;;;;;;83.80;32.95;;;;;;;;;;5050430;28;20108;-62
2022/01/26 11:10:17;;;;;;;74.20;34.75;;;;;;;;;;5047940;28;20445;-62
2022/01/26 11:12:44;;;;;;;79.80;33.15;;;;;;;;;;5050880;28;20543;-62
2022/01/26 11:15:12;;;;;;;77.78;32.63;;;;;;;;;;5046678;28;20085;-62
2022/01/26 11:17:41;;;;;;;73.65;30.98;;;;;;;;;;5047778;28;20077;-62
2022/01/26 11:20:20;;;;;;;78.75;34.22;;;;;;;;;;5047727;28;20045;-62
2022/01/26 11:22:54;;;;;;;74.13;33.40;;;;;;;;;;5046761;28;20052;-62
2022/01/26 11:25:22;;;;;;;80.43;32.90;;;;;;;;;;5043260;28;20890;-62
2022/01/26 11:27:48;;;;;;;80.15;35.20;;;;;;;;;;5040317;28;20055;-62
2022/01/26 11:30:16;;;;;;;84.22;34.88;;;;;;;;;;5046409;28;20045;-62
2022/01/26 11:32:55;;;;;;;78.72;33.08;;;;;;;;;;5040447;28;20120;-62
2022/01/26 11:35:23;;;;;;;74.70;34.72;;;;;;;;;;5033669;28;20459;-62
2022/01/26 11:38:03;;;;;;;80.53;35.10;;;;;;;;;;5031781;28;20061;-60
2022/01/26 11:46:38;;;;;;;78.03;35.92;;;;;;;;;;5031694;28;20049;-62
2022/01/26 11:49:05;;;;;;;84.03;34.00;;;;;;;;;;5031009;28;20042;-62
2022/01/26 11:51:43;;;;;;;82.35;34.63;;;;;;;;;;5032686;28;20071;-62
2022/01/26 11:54:10;;;;;;;81.80;35.33;;;;;;;;;;5031563;28;20556;-63
2022/01/26 11:56:36;;;;;;;77.63;33.40;;;;;;;;;;5035787;28;20049;-62
2022/01/26 11:59:02;;;;;;;84.15;34.90;;;;;;;;;;5034134;28;20045;-62
2022/01/26 12:01:38;;;;;;;84.07;33.20;;;;;;;;;;5033190;28;20041;-62
2022/01/26 12:04:09;;;;;;;74.82;33.67;;;;;;;;;;5039244;28;20046;-62
2022/01/26 12:06:42;;;;;;;87.38;33.75;;;;;;;;;;5036323;28;20049;-62
2022/01/26 12:09:09;;;;;;;74.43;34.15;;;;;;;;;;5031553;28;20480;-62
2022/01/26 12:11:36;;;;;;;83.25;35.25;;;;;;;;;;5035054;28;20045;-67
2022/01/26 12:14:04;;;;;;;76.38;33.85;;;;;;;;;;5035653;28;20424;-63
2022/01/26 12:16:34;;;;;;;71.78;32.25;;;;;;;;;;5031296;28;20041;-62
2022/01/26 12:38:17;;;;;;;69.07;30.75;;;;;;;;;;5050799;28;20045;-62
2022/01/26 12:43:38;;;;;;;72.60;31.60;;;;;;;;;;5033971;28;20041;-62
2022/01/26 12:46:06;;;;;;;73.43;32.08;;;;;;;;;;5032013;28;20048;-62
2022/01/26 12:48:34;;;;;;;72.13;31.92;;;;;;;;;;5031926;28;20045;-62
2022/01/26 12:51:02;;;;;;;72.53;29.88;;;;;;;;;;5049841;28;20512;-63
2022/01/26 12:53:29;;;;;;;74.70;31.60;;;;;;;;;;5043431;28;20115;-62
2022/01/26 12:55:56;;;;;;;69.07;30.67;;;;;;;;;;5032072;28;20416;-62
2022/01/26 12:58:24;;;;;;;72.35;30.50;;;;;;;;;;5031135;28;20029;-62
2022/01/26 13:00:51;;;;;;;61.10;27.77;;;;;;;;;;5032889;28;20045;-62
2022/01/26 13:03:19;;;;;;;73.30;30.48;;;;;;;;;;5034708;28;20049;-63
2022/01/26 13:05:46;;;;;;;72.05;29.77;;;;;;;;;;5042783;28;20049;-62
2022/01/26 13:08:12;;;;;;;79.38;31.77;;;;;;;;;;5045898;28;20049;-62
2022/01/26 13:10:38;;;;;;;66.78;28.75;;;;;;;;;;5033527;28;20041;-62
2022/01/26 13:13:12;;;;;;;77.55;31.70;;;;;;;;;;5042431;28;20037;-63
2022/01/26 13:15:50;;;;;;;75.13;30.38;;;;;;;;;;5031971;28;20052;-63
2022/01/26 13:18:43;;;;;;;66.25;28.20;;;;;;;;;;5031308;28;20045;-63
2022/01/26 13:21:38;;;;;;;73.10;29.67;;;;;;;;;;5044463;28;20107;-63
2022/01/26 13:24:21;;;;;;;;;;;;;;;;;;5044021;28;20068;-62
2022/01/26 13:27:00;;;;;;;67.57;28.08;;;;;;;;;;5039223;28;19943;-63
2022/01/26 13:29:49;;;;;;;66.22;28.77;;;;;;;;;;5046330;28;20379;-63
2022/01/26 13:35:16;;;;;;;66.28;27.60;;;;;;;;;;5038401;28;20052;-63
2022/01/26 13:37:59;;;;;;;67.22;29.40;;;;;;;;;;5045424;28;20111;-63
2022/01/26 13:40:48;;;;;;;67.72;30.20;;;;;;;;;;5035030;28;20114;-64
2022/01/26 13:44:00;;;;;;;69.10;30.30;;;;;;;;;;5032233;28;20133;-64
2022/01/26 13:46:47;;;;;;;79.65;28.23;;;;;;;;;;5042658;28;20052;-62
2022/01/26 13:54:23;;;;;;;70.63;28.15;;;;;;;;;;5053076;28;20113;-63
2022/01/26 13:56:54;;;;;;;58.97;27.10;;;;;;;;;;5054717;28;20163;-63
2022/01/26 13:59:27;;;;;;;60.90;26.70;;;;;;;;;;5051129;28;20136;-63
2022/01/26 14:01:53;;;;;;;71.22;26.98;;;;;;;;;;5050625;28;20077;-63
2022/01/26 14:04:20;;;;;;;77.00;29.08;;;;;;;;;;5051584;28;20499;-63
2022/01/26 14:06:47;;;;;;;58.65;26.10;;;;;;;;;;5055064;28;20079;-63
2022/01/26 14:09:13;;;;;;;62.03;28.38;;;;;;;;;;5053484;28;20369;-63
2022/01/26 14:11:40;;;;;;;63.33;28.63;;;;;;;;;;5056818;28;20056;-63
2022/01/26 14:14:09;;;;;;;64.20;26.92;;;;;;;;;;5056245;28;20048;-62
2022/01/26 14:16:40;;;;;;;64.95;27.77;;;;;;;;;;5053570;28;20437;-62
2022/01/26 14:19:14;;;;;;;67.15;28.83;;;;;;;;;;5054788;28;20488;-63
2022/01/26 14:24:24;;;;;;;65.50;26.35;;;;;;;;;;5047703;28;20077;-62
2022/01/26 14:26:55;;;;;;;63.90;26.52;;;;;;;;;;5044581;28;20171;-62
2022/01/26 14:29:40;;;;;;;65.63;27.02;;;;;;;;;;5052573;28;20045;-63
2022/01/26 14:32:28;;;;;;;62.92;27.33;;;;;;;;;;5048835;28;20072;-62
2022/01/26 14:35:13;;;;;;;59.33;26.67;;;;;;;;;;5044570;28;20064;-62
2022/01/26 14:40:53;;;;;;;56.83;25.67;;;;;;;;;;5043856;28;20485;-62
2022/01/26 14:52:02;;;;;;;57.78;26.33;;;;;;;;;;5052648;28;20128;-63
2022/01/26 14:54:42;;;;;;;66.00;26.98;;;;;;;;;;5052255;28;20056;-63
2022/01/26 15:19:16;;;;;;;61.45;28.13;;;;;;;;;;5048689;28;20090;-68
2022/01/26 15:30:23;;;;;;;61.80;26.10;;;;;;;;;;5051807;28;20044;-65
2022/01/26 15:35:28;;;;;;;65.30;28.13;;;;;;;;;;5054582;28;20042;-63
2022/01/26 15:48:48;;;;;;;72.03;26.83;;;;;;;;;;5042572;28;20361;-62
2022/01/26 15:51:44;;;;;;;71.03;29.40;;;;;;;;;;5050417;28;20061;-63
2022/01/26 15:57:24;;;;;;;71.20;29.42;;;;;;;;;;5048054;28;20053;-64
2022/01/26 16:05:26;;;;;;;67.60;29.10;;;;;;;;;;5047282;28;20048;-68
2022/01/26 16:08:06;;;;;;;81.10;29.60;;;;;;;;;;5048862;28;20195;-63
2022/01/26 16:21:22;;;;;;;71.28;28.02;;;;;;;;;;5059618;28;20052;-64
2022/01/26 17:03:11;;;;;;;63.65;24.48;;;;;;;;;;5047256;28;20064;-63
2022/01/26 17:24:19;;;;;;;64.55;25.17;;;;;;;;;;5047746;28;20052;-62
2022/01/26 17:43:27;;;;;;;60.13;23.35;;;;;;;;;;5046274;28;20050;-62
2022/01/26 18:05:49;;;;;;;57.22;23.00;;;;;;;;;;5047667;28;20127;-62
2022/01/26 18:31:56;;;;;;;61.45;26.30;;;;;;;;;;5047807;28;20377;-62
2022/01/26 18:50:38;;;;;;;54.25;23.77;;;;;;;;;;5056207;28;20052;-62
2022/01/26 18:53:04;;;;;;;51.38;22.77;;;;;;;;;;5052430;28;20063;-62
2022/01/26 18:55:31;;;;;;;56.63;25.33;;;;;;;;;;5050893;28;20737;-63
2022/01/26 18:57:57;;;;;;;54.00;22.90;;;;;;;;;;5054922;28;20036;-62
2022/01/26 19:00:23;;;;;;;50.72;24.40;;;;;;;;;;5052877;28;20045;-61
2022/01/26 19:02:49;;;;;;;57.60;24.25;;;;;;;;;;5040681;28;20033;-62
2022/01/26 19:05:16;;;;;;;49.15;23.27;;;;;;;;;;5044633;28;20488;-61
2022/01/26 19:07:44;;;;;;;47.42;24.25;;;;;;;;;;5044775;28;20068;-66
2022/01/26 19:10:11;;;;;;;51.30;23.65;;;;;;;;;;5045983;28;20499;-61
2022/01/26 19:12:38;;;;;;;49.25;23.08;;;;;;;;;;5046356;28;20044;-62
2022/01/26 19:15:09;;;;;;;46.75;22.88;;;;;;;;;;5044742;28;20151;-62
2022/01/26 19:17:42;;;;;;;51.38;24.55;;;;;;;;;;5041539;28;20053;-62
2022/01/26 19:27:47;;;;;;;47.80;21.73;;;;;;;;;;5044547;28;20503;-62
2022/01/26 19:31:14;;;;;;;50.75;22.23;;;;;;;;;;5040536;28;20111;-62
2022/01/26 19:40:18;;;;;;;48.53;21.77;;;;;;;;;;5043922;28;20531;-62
2022/01/26 19:44:00;;;;;;;45.67;21.35;;;;;;;;;;5051686;28;20131;-62
2022/01/26 19:51:57;;;;;;;51.35;22.75;;;;;;;;;;5049519;28;20068;-62
2022/01/26 19:54:23;;;;;;;52.30;22.83;;;;;;;;;;5051674;28;20092;-62
2022/01/26 19:56:49;;;;;;;63.65;23.38;;;;;;;;;;5053040;28;20596;-62
2022/01/26 19:59:15;;;;;;;64.07;23.92;;;;;;;;;;5046235;28;20060;-61
2022/01/26 20:01:42;;;;;;;53.25;22.40;;;;;;;;;;5048671;28;20041;-62
2022/01/26 20:04:08;;;;;;;50.10;23.45;;;;;;;;;;5048374;28;20048;-62
2022/01/26 20:06:34;;;;;;;55.45;23.60;;;;;;;;;;5045434;28;20044;-62
2022/01/26 20:09:10;;;;;;;54.47;22.75;;;;;;;;;;5053302;28;20397;-62
2022/01/26 20:11:40;;;;;;;62.78;25.08;;;;;;;;;;5050883;28;20053;-62
2022/01/26 20:14:06;;;;;;;50.80;21.10;;;;;;;;;;5045790;28;20052;-62
2022/01/26 20:16:33;;;;;;;58.42;23.40;;;;;;;;;;5050308;28;20095;-65
2022/01/26 20:19:00;;;;;;;50.90;23.35;;;;;;;;;;5053747;28;20036;-62